AUA52U LOWW-LIML
Flight info
| Callsign | AUA52U |
|---|---|
| Flight time | 1h 8m |
| Altitude | 34000 |
| Route | OSPEN DCT ABRUK DCT SETAL DCT DETSA/N0427F330 DCT NAXAV DCT RENTA DCT ATPED DCT LUSIL |
| Aircraft | A321/M-SDE3FGHIRWY/LB1 |
Departure
| Time | 2026-04-26 13:56 |
|---|---|
| Airport | Vienna International Airport (LOWW) |
Arrival
| Time | 2026-04-26 15:05 |
|---|---|
| Airport | Milano Linate Airport (LIML) |
| Time | Latitude | Longitude | Altitude | Speed | Heading |
|---|---|---|---|---|---|
| 2026-04-26 13:33 | 48.11741 | 16.56679 | 0 ft | 0 kts | 25° |
| 2026-04-26 13:43 | 48.11740 | 16.56679 | 636 ft | 2 kts | 25° |
| 2026-04-26 13:44 | 48.11717 | 16.56662 | 620 ft | 4 kts | 27° |
| 2026-04-26 13:44 | 48.11694 | 16.56643 | 625 ft | 4 kts | 39° |
| 2026-04-26 13:44 | 48.11680 | 16.56618 | 625 ft | 4 kts | 91° |
| 2026-04-26 13:44 | 48.11680 | 16.56607 | 625 ft | 0 kts | 116° |
| 2026-04-26 13:47 | 48.11668 | 16.56645 | 619 ft | 8 kts | 116° |
| 2026-04-26 13:47 | 48.11635 | 16.56747 | 612 ft | 11 kts | 116° |
| 2026-04-26 13:47 | 48.11601 | 16.56850 | 621 ft | 11 kts | 116° |
| 2026-04-26 13:47 | 48.11569 | 16.56949 | 613 ft | 10 kts | 116° |
| 2026-04-26 13:48 | 48.11539 | 16.57041 | 617 ft | 9 kts | 116° |
| 2026-04-26 13:48 | 48.11508 | 16.57136 | 618 ft | 10 kts | 116° |
| 2026-04-26 13:48 | 48.11478 | 16.57228 | 620 ft | 10 kts | 116° |
| 2026-04-26 13:48 | 48.11450 | 16.57315 | 621 ft | 9 kts | 116° |
| 2026-04-26 13:49 | 48.11418 | 16.57383 | 625 ft | 8 kts | 153° |
| 2026-04-26 13:49 | 48.11369 | 16.57371 | 609 ft | 7 kts | 200° |
| 2026-04-26 13:49 | 48.11321 | 16.57345 | 617 ft | 7 kts | 197° |
| 2026-04-26 13:49 | 48.11274 | 16.57371 | 613 ft | 8 kts | 136° |
| 2026-04-26 13:50 | 48.11242 | 16.57475 | 620 ft | 17 kts | 112° |
| 2026-04-26 13:50 | 48.11189 | 16.57641 | 620 ft | 17 kts | 116° |
| 2026-04-26 13:50 | 48.11116 | 16.57758 | 619 ft | 15 kts | 155° |
| 2026-04-26 13:50 | 48.11020 | 16.57810 | 614 ft | 14 kts | 161° |
| 2026-04-26 13:51 | 48.10921 | 16.57852 | 619 ft | 16 kts | 166° |
| 2026-04-26 13:51 | 48.10788 | 16.57901 | 612 ft | 23 kts | 166° |
| 2026-04-26 13:51 | 48.10627 | 16.57988 | 612 ft | 25 kts | 159° |
| 2026-04-26 13:51 | 48.10443 | 16.58057 | 620 ft | 25 kts | 168° |
| 2026-04-26 13:52 | 48.10254 | 16.58123 | 614 ft | 31 kts | 163° |
| 2026-04-26 13:52 | 48.10068 | 16.58210 | 612 ft | 29 kts | 163° |
| 2026-04-26 13:52 | 48.09854 | 16.58301 | 618 ft | 34 kts | 165° |
| 2026-04-26 13:52 | 48.09627 | 16.58387 | 613 ft | 36 kts | 165° |
| 2026-04-26 13:53 | 48.09382 | 16.58488 | 617 ft | 39 kts | 164° |
| 2026-04-26 13:53 | 48.09136 | 16.58592 | 617 ft | 38 kts | 164° |
| 2026-04-26 13:53 | 48.08916 | 16.58686 | 616 ft | 31 kts | 163° |
| 2026-04-26 13:53 | 48.08790 | 16.58878 | 616 ft | 24 kts | 95° |
| 2026-04-26 13:54 | 48.08803 | 16.58980 | 621 ft | 0 kts | 68° |
| 2026-04-26 13:55 | 48.08941 | 16.59098 | 609 ft | 18 kts | 351° |
| 2026-04-26 13:55 | 48.09021 | 16.59070 | 615 ft | 19 kts | 345° |
| 2026-04-26 13:55 | 48.10299 | 16.58559 | 666 ft | 167 kts | 342° |
| 2026-04-26 13:56 | 48.11500 | 16.58021 | 1122 ft | 186 kts | 345° |
| 2026-04-26 13:56 | 48.12773 | 16.57473 | 1766 ft | 192 kts | 344° |
| 2026-04-26 13:56 | 48.14117 | 16.56811 | 2039 ft | 216 kts | 332° |
| 2026-04-26 13:56 | 48.15075 | 16.55032 | 2559 ft | 236 kts | 290° |
| 2026-04-26 13:57 | 48.15024 | 16.52493 | 3183 ft | 261 kts | 252° |
| 2026-04-26 13:57 | 48.13877 | 16.50330 | 4160 ft | 275 kts | 218° |
| 2026-04-26 13:57 | 48.12153 | 16.49022 | 5208 ft | 279 kts | 204° |
| 2026-04-26 13:57 | 48.10346 | 16.48048 | 6229 ft | 280 kts | 205° |
| 2026-04-26 13:58 | 48.08477 | 16.47056 | 7179 ft | 282 kts | 206° |
| 2026-04-26 13:58 | 48.06740 | 16.45725 | 7982 ft | 281 kts | 219° |
| 2026-04-26 13:58 | 48.05153 | 16.44025 | 8579 ft | 292 kts | 224° |
| 2026-04-26 13:58 | 48.03540 | 16.42008 | 8989 ft | 309 kts | 226° |
| 2026-04-26 13:59 | 48.01907 | 16.39839 | 9690 ft | 318 kts | 227° |
| 2026-04-26 13:59 | 48.00231 | 16.37576 | 10231 ft | 330 kts | 227° |
| 2026-04-26 13:59 | 47.98509 | 16.35260 | 10885 ft | 336 kts | 227° |
| 2026-04-26 14:00 | 47.94590 | 16.26089 | 11899 ft | 366 kts | 254° |
| 2026-04-26 14:00 | 47.93717 | 16.22497 | 12524 ft | 370 kts | 254° |
| 2026-04-26 14:00 | 47.93130 | 16.20108 | 12947 ft | 372 kts | 254° |
| 2026-04-26 14:01 | 47.91931 | 16.15249 | 13761 ft | 376 kts | 254° |
| 2026-04-26 14:01 | 47.91035 | 16.11617 | 14321 ft | 380 kts | 254° |
| 2026-04-26 14:01 | 47.90118 | 16.07899 | 14842 ft | 384 kts | 253° |
| 2026-04-26 14:01 | 47.89188 | 16.04144 | 15336 ft | 388 kts | 253° |
| 2026-04-26 14:02 | 47.88232 | 16.00368 | 15833 ft | 391 kts | 251° |
| 2026-04-26 14:02 | 47.86877 | 15.96783 | 16229 ft | 402 kts | 238° |
| 2026-04-26 14:02 | 47.84958 | 15.93689 | 16644 ft | 412 kts | 224° |
| 2026-04-26 14:02 | 47.82662 | 15.91057 | 17085 ft | 417 kts | 220° |
| 2026-04-26 14:03 | 47.80339 | 15.88446 | 17482 ft | 420 kts | 220° |
| 2026-04-26 14:03 | 47.78027 | 15.85843 | 17912 ft | 423 kts | 220° |
| 2026-04-26 14:03 | 47.75665 | 15.83178 | 18381 ft | 427 kts | 220° |
| 2026-04-26 14:03 | 47.73295 | 15.80504 | 18792 ft | 429 kts | 220° |
| 2026-04-26 14:04 | 47.70910 | 15.77812 | 19251 ft | 430 kts | 220° |
| 2026-04-26 14:04 | 47.68524 | 15.75118 | 19800 ft | 429 kts | 220° |
| 2026-04-26 14:04 | 47.66144 | 15.72439 | 20360 ft | 428 kts | 220° |
| 2026-04-26 14:04 | 47.63764 | 15.69768 | 20929 ft | 428 kts | 220° |
| 2026-04-26 14:05 | 47.61413 | 15.67133 | 21495 ft | 428 kts | 220° |
| 2026-04-26 14:05 | 47.59037 | 15.64477 | 22094 ft | 427 kts | 220° |
| 2026-04-26 14:05 | 47.56663 | 15.61829 | 22702 ft | 426 kts | 220° |
| 2026-04-26 14:05 | 47.54295 | 15.59189 | 23313 ft | 425 kts | 220° |
| 2026-04-26 14:06 | 47.51956 | 15.56518 | 23917 ft | 422 kts | 224° |
| 2026-04-26 14:06 | 47.49932 | 15.53419 | 24440 ft | 415 kts | 235° |
| 2026-04-26 14:06 | 47.48351 | 15.49880 | 24980 ft | 409 kts | 245° |
| 2026-04-26 14:06 | 47.47239 | 15.46036 | 25537 ft | 403 kts | 255° |
| 2026-04-26 14:07 | 47.46476 | 15.42132 | 26087 ft | 400 kts | 257° |
| 2026-04-26 14:07 | 47.45710 | 15.38184 | 26670 ft | 397 kts | 256° |
| 2026-04-26 14:07 | 47.44945 | 15.34269 | 27253 ft | 394 kts | 256° |
| 2026-04-26 14:07 | 47.44184 | 15.30385 | 27854 ft | 391 kts | 256° |
| 2026-04-26 14:08 | 47.43426 | 15.26539 | 28464 ft | 387 kts | 256° |
| 2026-04-26 14:08 | 47.42679 | 15.22754 | 29089 ft | 382 kts | 255° |
| 2026-04-26 14:08 | 47.41947 | 15.19042 | 29720 ft | 378 kts | 255° |
| 2026-04-26 14:08 | 47.41219 | 15.15352 | 30355 ft | 372 kts | 255° |
| 2026-04-26 14:09 | 47.40498 | 15.11694 | 30902 ft | 367 kts | 255° |
| 2026-04-26 14:09 | 47.39786 | 15.08103 | 31482 ft | 360 kts | 255° |
| 2026-04-26 14:09 | 47.39085 | 15.04579 | 32066 ft | 353 kts | 255° |
| 2026-04-26 14:09 | 47.38404 | 15.01159 | 32477 ft | 351 kts | 255° |
| 2026-04-26 14:10 | 47.37719 | 14.97707 | 32819 ft | 350 kts | 255° |
| 2026-04-26 14:10 | 47.37031 | 14.94245 | 33162 ft | 349 kts | 255° |
| 2026-04-26 14:10 | 47.36346 | 14.90809 | 33514 ft | 348 kts | 255° |
| 2026-04-26 14:10 | 47.35662 | 14.87385 | 33868 ft | 346 kts | 255° |
| 2026-04-26 14:11 | 47.34288 | 14.80512 | 34138 ft | 355 kts | 254° |
| 2026-04-26 14:11 | 47.32861 | 14.73399 | 34141 ft | 371 kts | 254° |
| 2026-04-26 14:12 | 47.31346 | 14.65918 | 34135 ft | 388 kts | 254° |
| 2026-04-26 14:12 | 47.30040 | 14.59472 | 34140 ft | 402 kts | 254° |
| 2026-04-26 14:13 | 47.28133 | 14.50052 | 34141 ft | 421 kts | 254° |
| 2026-04-26 14:13 | 47.27573 | 14.47295 | 34139 ft | 423 kts | 254° |
| 2026-04-26 14:14 | 47.25867 | 14.38967 | 34144 ft | 425 kts | 254° |
| 2026-04-26 14:14 | 47.24143 | 14.30634 | 34149 ft | 425 kts | 254° |
| 2026-04-26 14:15 | 47.22417 | 14.22299 | 34155 ft | 425 kts | 254° |
| 2026-04-26 14:15 | 47.20696 | 14.13967 | 34141 ft | 425 kts | 254° |
| 2026-04-26 14:16 | 47.18977 | 14.05687 | 34139 ft | 425 kts | 254° |
| 2026-04-26 14:16 | 47.17236 | 13.97359 | 34139 ft | 425 kts | 254° |
| 2026-04-26 14:17 | 47.15485 | 13.89033 | 34136 ft | 425 kts | 254° |
| 2026-04-26 14:17 | 47.13736 | 13.80772 | 34138 ft | 426 kts | 254° |
| 2026-04-26 14:18 | 47.11974 | 13.72472 | 34132 ft | 425 kts | 254° |
| 2026-04-26 14:18 | 47.10209 | 13.64166 | 34134 ft | 426 kts | 254° |
| 2026-04-26 14:19 | 47.08432 | 13.55850 | 34130 ft | 426 kts | 254° |
| 2026-04-26 14:19 | 47.06656 | 13.47556 | 34127 ft | 426 kts | 254° |
| 2026-04-26 14:20 | 47.04886 | 13.39314 | 34129 ft | 426 kts | 254° |
| 2026-04-26 14:20 | 47.03094 | 13.31008 | 34124 ft | 427 kts | 253° |
| 2026-04-26 14:21 | 47.01296 | 13.22724 | 34125 ft | 426 kts | 253° |
| 2026-04-26 14:21 | 46.99486 | 13.14434 | 34126 ft | 426 kts | 253° |
| 2026-04-26 14:22 | 46.97691 | 13.06212 | 34118 ft | 427 kts | 253° |
| 2026-04-26 14:22 | 46.95876 | 12.97933 | 34121 ft | 427 kts | 253° |
| 2026-04-26 14:23 | 46.94053 | 12.89652 | 34120 ft | 427 kts | 253° |
| 2026-04-26 14:23 | 46.92219 | 12.81364 | 34117 ft | 427 kts | 253° |
| 2026-04-26 14:24 | 46.90379 | 12.73108 | 34127 ft | 427 kts | 253° |
| 2026-04-26 14:24 | 46.88537 | 12.64880 | 34127 ft | 427 kts | 253° |
| 2026-04-26 14:25 | 46.86681 | 12.56607 | 34125 ft | 427 kts | 253° |
| 2026-04-26 14:25 | 46.84832 | 12.48371 | 34133 ft | 427 kts | 253° |
| 2026-04-26 14:26 | 46.82989 | 12.40169 | 34145 ft | 427 kts | 253° |
| 2026-04-26 14:26 | 46.81121 | 12.31925 | 34157 ft | 426 kts | 253° |
| 2026-04-26 14:27 | 46.78824 | 12.23984 | 34155 ft | 428 kts | 245° |
| 2026-04-26 14:27 | 46.76123 | 12.16235 | 34158 ft | 427 kts | 245° |
| 2026-04-26 14:28 | 46.73426 | 12.08504 | 34154 ft | 427 kts | 245° |
| 2026-04-26 14:28 | 46.70718 | 12.00759 | 34135 ft | 427 kts | 245° |
| 2026-04-26 14:29 | 46.68029 | 11.93088 | 34124 ft | 427 kts | 245° |
| 2026-04-26 14:29 | 46.65334 | 11.85445 | 34104 ft | 426 kts | 244° |
| 2026-04-26 14:30 | 46.62616 | 11.77753 | 34087 ft | 426 kts | 245° |
| 2026-04-26 14:30 | 46.59904 | 11.70078 | 34058 ft | 426 kts | 245° |
| 2026-04-26 14:31 | 46.57201 | 11.62451 | 34041 ft | 426 kts | 245° |
| 2026-04-26 14:31 | 46.54476 | 11.54790 | 34044 ft | 426 kts | 244° |
| 2026-04-26 14:32 | 46.51753 | 11.47187 | 34014 ft | 426 kts | 244° |
| 2026-04-26 14:32 | 46.49012 | 11.39542 | 34025 ft | 426 kts | 244° |
| 2026-04-26 14:33 | 46.46278 | 11.31922 | 34021 ft | 425 kts | 244° |
| 2026-04-26 14:33 | 46.43613 | 11.24266 | 34023 ft | 425 kts | 245° |
| 2026-04-26 14:34 | 46.41018 | 11.16632 | 34232 ft | 424 kts | 245° |
| 2026-04-26 14:34 | 46.38387 | 11.08947 | 34242 ft | 424 kts | 245° |
| 2026-04-26 14:35 | 46.35758 | 11.01332 | 34239 ft | 424 kts | 245° |
| 2026-04-26 14:35 | 46.33106 | 10.93711 | 34225 ft | 424 kts | 245° |
| 2026-04-26 14:36 | 46.30452 | 10.86084 | 34198 ft | 424 kts | 245° |
| 2026-04-26 14:36 | 46.27827 | 10.78502 | 34181 ft | 423 kts | 245° |
| 2026-04-26 14:37 | 46.25184 | 10.70871 | 34164 ft | 423 kts | 245° |
| 2026-04-26 14:37 | 46.22531 | 10.63266 | 34145 ft | 423 kts | 245° |
| 2026-04-26 14:38 | 46.19866 | 10.55665 | 34134 ft | 423 kts | 245° |
| 2026-04-26 14:38 | 46.17219 | 10.48127 | 34142 ft | 423 kts | 245° |
| 2026-04-26 14:39 | 46.14548 | 10.40562 | 34135 ft | 423 kts | 245° |
| 2026-04-26 14:39 | 46.11870 | 10.32984 | 34130 ft | 423 kts | 244° |
| 2026-04-26 14:40 | 46.09187 | 10.25406 | 34126 ft | 423 kts | 244° |
| 2026-04-26 14:40 | 46.06508 | 10.17874 | 34125 ft | 423 kts | 244° |
| 2026-04-26 14:41 | 46.03004 | 10.11041 | 34117 ft | 428 kts | 225° |
| 2026-04-26 14:41 | 45.98025 | 10.06061 | 34110 ft | 432 kts | 214° |
| 2026-04-26 14:42 | 45.93003 | 10.01617 | 34105 ft | 433 kts | 214° |
| 2026-04-26 14:42 | 45.90430 | 9.99337 | 33896 ft | 434 kts | 214° |
| 2026-04-26 14:42 | 45.87893 | 9.97090 | 33565 ft | 434 kts | 214° |
| 2026-04-26 14:42 | 45.85309 | 9.94803 | 33228 ft | 435 kts | 214° |
| 2026-04-26 14:43 | 45.82734 | 9.92530 | 32891 ft | 436 kts | 214° |
| 2026-04-26 14:43 | 45.80195 | 9.90295 | 32584 ft | 437 kts | 214° |
| 2026-04-26 14:43 | 45.77542 | 9.87960 | 32267 ft | 438 kts | 214° |
| 2026-04-26 14:43 | 45.74927 | 9.85652 | 31935 ft | 439 kts | 214° |
| 2026-04-26 14:44 | 45.72323 | 9.83354 | 31601 ft | 440 kts | 214° |
| 2026-04-26 14:44 | 45.69711 | 9.81050 | 31238 ft | 442 kts | 214° |
| 2026-04-26 14:44 | 45.67085 | 9.78740 | 30889 ft | 443 kts | 214° |
| 2026-04-26 14:44 | 45.64479 | 9.76440 | 30547 ft | 443 kts | 215° |
| 2026-04-26 14:45 | 45.61914 | 9.74044 | 30204 ft | 441 kts | 217° |
| 2026-04-26 14:45 | 45.60239 | 9.72403 | 29951 ft | 440 kts | 217° |
| 2026-04-26 14:45 | 45.56897 | 9.69019 | 29419 ft | 437 kts | 218° |
| 2026-04-26 14:45 | 45.54430 | 9.66487 | 29124 ft | 435 kts | 218° |
| 2026-04-26 14:46 | 45.51972 | 9.63978 | 28746 ft | 433 kts | 218° |
| 2026-04-26 14:46 | 45.49519 | 9.61497 | 28369 ft | 431 kts | 217° |
| 2026-04-26 14:46 | 45.47080 | 9.59064 | 27985 ft | 429 kts | 217° |
| 2026-04-26 14:46 | 45.44661 | 9.56673 | 27617 ft | 427 kts | 217° |
| 2026-04-26 14:47 | 45.42223 | 9.54274 | 27245 ft | 424 kts | 217° |
| 2026-04-26 14:47 | 45.39788 | 9.51882 | 26871 ft | 422 kts | 216° |
| 2026-04-26 14:47 | 45.37376 | 9.49511 | 26433 ft | 420 kts | 217° |
| 2026-04-26 14:47 | 45.34977 | 9.47152 | 26136 ft | 418 kts | 217° |
| 2026-04-26 14:48 | 45.32478 | 9.45049 | 26065 ft | 419 kts | 205° |
| 2026-04-26 14:48 | 45.29710 | 9.43882 | 26088 ft | 423 kts | 190° |
| 2026-04-26 14:48 | 45.26745 | 9.43769 | 26090 ft | 427 kts | 178° |
| 2026-04-26 14:48 | 45.23777 | 9.44086 | 26086 ft | 427 kts | 177° |
| 2026-04-26 14:49 | 45.20809 | 9.44414 | 26084 ft | 427 kts | 177° |
| 2026-04-26 14:49 | 45.17840 | 9.44746 | 26084 ft | 427 kts | 177° |
| 2026-04-26 14:49 | 45.14902 | 9.45072 | 26075 ft | 427 kts | 177° |
| 2026-04-26 14:49 | 45.11934 | 9.45394 | 26078 ft | 427 kts | 178° |
| 2026-04-26 14:50 | 45.08967 | 9.45710 | 26074 ft | 427 kts | 178° |
| 2026-04-26 14:50 | 45.05989 | 9.46023 | 26074 ft | 427 kts | 178° |
| 2026-04-26 14:50 | 45.03021 | 9.46260 | 26070 ft | 426 kts | 184° |
| 2026-04-26 14:50 | 45.00160 | 9.45404 | 26070 ft | 419 kts | 205° |
| 2026-04-26 14:51 | 44.97751 | 9.43162 | 25733 ft | 410 kts | 227° |
| 2026-04-26 14:51 | 44.96204 | 9.39894 | 25374 ft | 395 kts | 250° |
| 2026-04-26 14:51 | 44.95747 | 9.36169 | 25018 ft | 381 kts | 274° |
| 2026-04-26 14:51 | 44.96400 | 9.32677 | 24679 ft | 371 kts | 298° |
| 2026-04-26 14:52 | 44.98031 | 9.29942 | 24321 ft | 365 kts | 322° |
| 2026-04-26 14:52 | 45.00322 | 9.28470 | 23846 ft | 364 kts | 348° |
| 2026-04-26 14:52 | 45.02845 | 9.28529 | 23321 ft | 365 kts | 9° |
| 2026-04-26 14:52 | 45.05325 | 9.29274 | 22692 ft | 364 kts | 10° |
| 2026-04-26 14:53 | 45.07792 | 9.30024 | 22013 ft | 365 kts | 11° |
| 2026-04-26 14:53 | 45.10290 | 9.30786 | 21274 ft | 368 kts | 10° |
| 2026-04-26 14:53 | 45.12826 | 9.31187 | 20569 ft | 367 kts | 358° |
| 2026-04-26 14:53 | 45.15387 | 9.31070 | 19883 ft | 368 kts | 355° |
| 2026-04-26 14:54 | 45.17088 | 9.30901 | 19433 ft | 369 kts | 354° |
| 2026-04-26 14:54 | 45.19652 | 9.30573 | 18769 ft | 370 kts | 353° |
| 2026-04-26 14:54 | 45.22906 | 9.29270 | 17819 ft | 367 kts | 327° |
| 2026-04-26 14:54 | 45.24233 | 9.27743 | 17336 ft | 361 kts | 313° |
| 2026-04-26 14:55 | 45.25845 | 9.25075 | 16607 ft | 353 kts | 309° |
| 2026-04-26 14:55 | 45.27413 | 9.22416 | 15903 ft | 347 kts | 309° |
| 2026-04-26 14:55 | 45.29000 | 9.19942 | 15207 ft | 340 kts | 320° |
| 2026-04-26 14:55 | 45.31072 | 9.18388 | 14539 ft | 336 kts | 345° |
| 2026-04-26 14:56 | 45.33376 | 9.17953 | 13874 ft | 331 kts | 355° |
| 2026-04-26 14:56 | 45.35642 | 9.17698 | 13129 ft | 321 kts | 355° |
| 2026-04-26 14:56 | 45.37827 | 9.17469 | 12402 ft | 308 kts | 355° |
| 2026-04-26 14:56 | 45.39924 | 9.17253 | 11706 ft | 299 kts | 355° |
| 2026-04-26 14:57 | 45.41976 | 9.17040 | 11010 ft | 291 kts | 355° |
| 2026-04-26 14:57 | 45.43946 | 9.16832 | 10340 ft | 284 kts | 355° |
| 2026-04-26 14:57 | 45.45924 | 9.16618 | 9651 ft | 288 kts | 355° |
| 2026-04-26 14:57 | 45.47951 | 9.16396 | 8919 ft | 295 kts | 355° |
| 2026-04-26 14:58 | 45.50004 | 9.16174 | 8206 ft | 294 kts | 356° |
| 2026-04-26 14:58 | 45.52050 | 9.15950 | 7510 ft | 293 kts | 356° |
| 2026-04-26 14:58 | 45.54075 | 9.15726 | 6831 ft | 292 kts | 356° |
| 2026-04-26 14:58 | 45.56102 | 9.15505 | 6209 ft | 289 kts | 356° |
| 2026-04-26 14:59 | 45.58082 | 9.15287 | 5678 ft | 282 kts | 356° |
| 2026-04-26 14:59 | 45.60019 | 9.15075 | 5165 ft | 283 kts | 356° |
| 2026-04-26 14:59 | 45.61990 | 9.14858 | 4629 ft | 284 kts | 356° |
| 2026-04-26 14:59 | 45.63320 | 9.14908 | 4301 ft | 283 kts | 13° |
| 2026-04-26 15:00 | 45.65400 | 9.16872 | 3842 ft | 270 kts | 59° |
| 2026-04-26 15:00 | 45.65971 | 9.19334 | 3498 ft | 263 kts | 85° |
| 2026-04-26 15:00 | 45.66008 | 9.21926 | 3150 ft | 259 kts | 96° |
| 2026-04-26 15:00 | 45.65385 | 9.24267 | 2947 ft | 247 kts | 132° |
| 2026-04-26 15:01 | 45.63988 | 9.25536 | 2766 ft | 237 kts | 166° |
| 2026-04-26 15:01 | 45.62397 | 9.25808 | 2619 ft | 229 kts | 176° |
| 2026-04-26 15:01 | 45.60815 | 9.25970 | 2447 ft | 228 kts | 176° |
| 2026-04-26 15:01 | 45.59237 | 9.26128 | 2279 ft | 225 kts | 176° |
| 2026-04-26 15:02 | 45.57714 | 9.26286 | 2117 ft | 211 kts | 176° |
| 2026-04-26 15:02 | 45.56293 | 9.26435 | 2039 ft | 199 kts | 176° |
| 2026-04-26 15:02 | 45.54902 | 9.26583 | 1855 ft | 188 kts | 176° |
| 2026-04-26 15:02 | 45.53699 | 9.26712 | 1667 ft | 169 kts | 176° |
| 2026-04-26 15:03 | 45.52573 | 9.26834 | 1457 ft | 156 kts | 177° |
| 2026-04-26 15:03 | 45.51517 | 9.26948 | 1283 ft | 149 kts | 176° |
| 2026-04-26 15:03 | 45.50495 | 9.27058 | 1122 ft | 145 kts | 174° |
| 2026-04-26 15:03 | 45.49492 | 9.27166 | 984 ft | 145 kts | 173° |
| 2026-04-26 15:04 | 45.48477 | 9.27290 | 817 ft | 146 kts | 172° |
| 2026-04-26 15:04 | 45.47461 | 9.27421 | 665 ft | 147 kts | 175° |
| 2026-04-26 15:04 | 45.46449 | 9.27480 | 528 ft | 143 kts | 175° |
| 2026-04-26 15:04 | 45.45495 | 9.27600 | 373 ft | 130 kts | 175° |
| 2026-04-26 15:05 | 45.44856 | 9.27662 | 361 ft | 35 kts | 176° |
| 2026-04-26 15:05 | 45.44750 | 9.27691 | 365 ft | 24 kts | 163° |
| 2026-04-26 15:05 | 45.44456 | 9.27704 | 356 ft | 30 kts | 175° |
| 2026-04-26 15:05 | 45.44245 | 9.27755 | 353 ft | 32 kts | 169° |
| 2026-04-26 15:06 | 45.44151 | 9.27812 | 352 ft | 8 kts | 105° |
| 2026-04-26 15:06 | 45.44169 | 9.27872 | 356 ft | 6 kts | 57° |
| 2026-04-26 15:06 | 45.44190 | 9.27912 | 357 ft | 4 kts | 50° |
| 2026-04-26 15:06 | 45.44208 | 9.27941 | 356 ft | 3 kts | 49° |
| 2026-04-26 15:07 | 45.44230 | 9.27979 | 352 ft | 1 kts | 49° |
| 2026-04-26 15:07 | 45.44234 | 9.27986 | 352 ft | 0 kts | 49° |
| 2026-04-26 15:07 | 45.44244 | 9.27993 | 361 ft | 9 kts | 23° |
| 2026-04-26 15:08 | 45.44367 | 9.27993 | 361 ft | 20 kts | 357° |
| 2026-04-26 15:08 | 45.44507 | 9.27983 | 357 ft | 20 kts | 356° |
| 2026-04-26 15:08 | 45.44643 | 9.27972 | 356 ft | 19 kts | 356° |
| 2026-04-26 15:08 | 45.44774 | 9.27961 | 363 ft | 19 kts | 357° |
| 2026-04-26 15:09 | 45.44901 | 9.27944 | 358 ft | 18 kts | 351° |
| 2026-04-26 15:09 | 45.45019 | 9.27899 | 362 ft | 17 kts | 345° |
| 2026-04-26 15:09 | 45.45134 | 9.27874 | 365 ft | 16 kts | 355° |
| 2026-04-26 15:09 | 45.45244 | 9.27878 | 361 ft | 16 kts | 14° |
| 2026-04-26 15:10 | 45.45340 | 9.27945 | 361 ft | 15 kts | 28° |
| 2026-04-26 15:10 | 45.45405 | 9.27977 | 360 ft | 14 kts | 6° |
| 2026-04-26 15:10 | 45.45535 | 9.27979 | 362 ft | 14 kts | 360° |
| 2026-04-26 15:10 | 45.45628 | 9.27979 | 367 ft | 13 kts | 0° |
| 2026-04-26 15:11 | 45.45719 | 9.27979 | 361 ft | 13 kts | 0° |
| 2026-04-26 15:11 | 45.45821 | 9.27982 | 361 ft | 15 kts | 2° |
| 2026-04-26 15:11 | 45.45913 | 9.27968 | 362 ft | 13 kts | 352° |
| 2026-04-26 15:11 | 45.45960 | 9.27967 | 360 ft | 1 kts | 0° |
| 2026-04-26 15:12 | 45.45967 | 9.27967 | 360 ft | 1 kts | 0° |
| 2026-04-26 15:12 | 45.45973 | 9.27967 | 363 ft | 0 kts | 1° |